sensor_id;sensor_type;location;lat;lon;timestamp;temperature;humidity
75387;DHT22;63966;47.914;22.266;2024-03-06T00:00:30;7.37;90.15
75387;DHT22;63966;47.914;22.266;2024-03-06T00:03:36;7.44;89.93
75387;DHT22;63966;47.914;22.266;2024-03-06T00:06:39;7.42;90.09
75387;DHT22;63966;47.914;22.266;2024-03-06T00:09:43;7.44;89.88
75387;DHT22;63966;47.914;22.266;2024-03-06T00:12:46;7.47;89.95
75387;DHT22;63966;47.914;22.266;2024-03-06T00:15:50;7.48;89.97
75387;DHT22;63966;47.914;22.266;2024-03-06T00:18:53;7.51;89.64
75387;DHT22;63966;47.914;22.266;2024-03-06T00:21:56;7.54;89.59
75387;DHT22;63966;47.914;22.266;2024-03-06T00:25:00;7.55;89.36
75387;DHT22;63966;47.914;22.266;2024-03-06T00:28:04;7.57;89.31
75387;DHT22;63966;47.914;22.266;2024-03-06T00:31:07;7.53;89.37
75387;DHT22;63966;47.914;22.266;2024-03-06T00:34:12;7.51;89.36
75387;DHT22;63966;47.914;22.266;2024-03-06T00:37:16;7.44;89.46
75387;DHT22;63966;47.914;22.266;2024-03-06T00:40:20;7.47;89.47
75387;DHT22;63966;47.914;22.266;2024-03-06T00:43:24;7.42;89.60
75387;DHT22;63966;47.914;22.266;2024-03-06T00:46:27;7.38;89.76
75387;DHT22;63966;47.914;22.266;2024-03-06T00:49:31;7.46;89.43
75387;DHT22;63966;47.914;22.266;2024-03-06T00:52:34;7.38;89.59
75387;DHT22;63966;47.914;22.266;2024-03-06T00:55:38;7.36;89.64
75387;DHT22;63966;47.914;22.266;2024-03-06T00:58:41;7.34;89.53
75387;DHT22;63966;47.914;22.266;2024-03-06T01:01:45;7.42;89.40
75387;DHT22;63966;47.914;22.266;2024-03-06T01:04:48;7.36;89.40
75387;DHT22;63966;47.914;22.266;2024-03-06T01:07:52;7.31;89.51
75387;DHT22;63966;47.914;22.266;2024-03-06T01:10:57;7.23;89.69
75387;DHT22;63966;47.914;22.266;2024-03-06T01:14:01;7.26;89.67
75387;DHT22;63966;47.914;22.266;2024-03-06T01:17:05;7.30;89.34
75387;DHT22;63966;47.914;22.266;2024-03-06T01:20:09;7.26;89.54
75387;DHT22;63966;47.914;22.266;2024-03-06T01:23:13;7.22;89.62
75387;DHT22;63966;47.914;22.266;2024-03-06T01:26:17;7.24;89.52
75387;DHT22;63966;47.914;22.266;2024-03-06T01:29:20;7.24;89.33
75387;DHT22;63966;47.914;22.266;2024-03-06T01:32:44;7.27;89.39
75387;DHT22;63966;47.914;22.266;2024-03-06T01:35:47;7.24;89.37
75387;DHT22;63966;47.914;22.266;2024-03-06T01:38:50;7.20;89.50
75387;DHT22;63966;47.914;22.266;2024-03-06T01:41:54;7.15;89.63
75387;DHT22;63966;47.914;22.266;2024-03-06T01:44:58;7.15;89.57
75387;DHT22;63966;47.914;22.266;2024-03-06T01:48:02;7.24;89.14
75387;DHT22;63966;47.914;22.266;2024-03-06T01:51:06;7.24;89.25
75387;DHT22;63966;47.914;22.266;2024-03-06T01:54:09;7.31;89.01
75387;DHT22;63966;47.914;22.266;2024-03-06T01:57:16;7.34;88.74
75387;DHT22;63966;47.914;22.266;2024-03-06T02:00:20;7.26;88.84
75387;DHT22;63966;47.914;22.266;2024-03-06T02:03:25;7.26;88.98
75387;DHT22;63966;47.914;22.266;2024-03-06T02:06:30;7.24;88.93
75387;DHT22;63966;47.914;22.266;2024-03-06T02:09:34;7.20;89.12
75387;DHT22;63966;47.914;22.266;2024-03-06T02:12:37;7.19;89.06
75387;DHT22;63966;47.914;22.266;2024-03-06T02:15:41;7.17;89.08
75387;DHT22;63966;47.914;22.266;2024-03-06T02:18:57;7.17;89.14
75387;DHT22;63966;47.914;22.266;2024-03-06T02:22:01;7.06;89.41
75387;DHT22;63966;47.914;22.266;2024-03-06T02:25:06;7.06;89.49
75387;DHT22;63966;47.914;22.266;2024-03-06T02:28:10;7.07;89.39
75387;DHT22;63966;47.914;22.266;2024-03-06T02:31:14;6.96;89.56
75387;DHT22;63966;47.914;22.266;2024-03-06T02:34:17;6.85;89.87
75387;DHT22;63966;47.914;22.266;2024-03-06T02:37:21;6.81;90.07
75387;DHT22;63966;47.914;22.266;2024-03-06T02:40:25;6.74;90.19
75387;DHT22;63966;47.914;22.266;2024-03-06T02:43:28;6.68;90.50
75387;DHT22;63966;47.914;22.266;2024-03-06T02:46:32;6.65;90.65
75387;DHT22;63966;47.914;22.266;2024-03-06T02:49:35;6.69;90.19
75387;DHT22;63966;47.914;22.266;2024-03-06T02:52:39;6.81;89.94
75387;DHT22;63966;47.914;22.266;2024-03-06T02:55:43;6.68;90.37
75387;DHT22;63966;47.914;22.266;2024-03-06T02:58:46;6.59;90.31
75387;DHT22;63966;47.914;22.266;2024-03-06T03:01:50;6.72;90.30
75387;DHT22;63966;47.914;22.266;2024-03-06T03:04:54;6.54;90.56
75387;DHT22;63966;47.914;22.266;2024-03-06T03:07:57;6.69;90.39
75387;DHT22;63966;47.914;22.266;2024-03-06T03:11:01;6.74;90.13
75387;DHT22;63966;47.914;22.266;2024-03-06T03:14:04;6.81;89.86
75387;DHT22;63966;47.914;22.266;2024-03-06T03:17:08;6.72;90.16
75387;DHT22;63966;47.914;22.266;2024-03-06T03:20:12;6.82;89.64
75387;DHT22;63966;47.914;22.266;2024-03-06T03:23:15;6.82;89.74
75387;DHT22;63966;47.914;22.266;2024-03-06T03:26:25;6.84;89.52
75387;DHT22;63966;47.914;22.266;2024-03-06T03:29:29;6.84;89.33
75387;DHT22;63966;47.914;22.266;2024-03-06T03:32:33;6.88;89.22
75387;DHT22;63966;47.914;22.266;2024-03-06T03:35:36;6.85;89.19
75387;DHT22;63966;47.914;22.266;2024-03-06T03:38:40;6.86;88.93
75387;DHT22;63966;47.914;22.266;2024-03-06T03:41:45;6.95;88.90
75387;DHT22;63966;47.914;22.266;2024-03-06T03:44:49;6.89;88.77
75387;DHT22;63966;47.914;22.266;2024-03-06T03:47:52;6.96;88.61
75387;DHT22;63966;47.914;22.266;2024-03-06T03:50:56;7.09;87.96
75387;DHT22;63966;47.914;22.266;2024-03-06T03:53:59;6.93;88.15
75387;DHT22;63966;47.914;22.266;2024-03-06T03:57:03;6.85;88.78
75387;DHT22;63966;47.914;22.266;2024-03-06T04:00:07;6.96;88.42
75387;DHT22;63966;47.914;22.266;2024-03-06T04:03:15;7.02;88.04
75387;DHT22;63966;47.914;22.266;2024-03-06T04:06:18;6.95;88.22
75387;DHT22;63966;47.914;22.266;2024-03-06T04:09:22;6.98;88.03
75387;DHT22;63966;47.914;22.266;2024-03-06T04:12:25;6.89;88.43
75387;DHT22;63966;47.914;22.266;2024-03-06T04:15:29;6.82;88.87
75387;DHT22;63966;47.914;22.266;2024-03-06T04:18:33;6.88;88.38
75387;DHT22;63966;47.914;22.266;2024-03-06T04:21:43;6.79;88.92
75387;DHT22;63966;47.914;22.266;2024-03-06T04:24:47;6.68;89.30
75387;DHT22;63966;47.914;22.266;2024-03-06T04:27:51;6.68;89.38
75387;DHT22;63966;47.914;22.266;2024-03-06T04:30:55;6.69;89.05
75387;DHT22;63966;47.914;22.266;2024-03-06T04:33:58;6.69;88.89
75387;DHT22;63966;47.914;22.266;2024-03-06T04:37:01;6.69;88.88
75387;DHT22;63966;47.914;22.266;2024-03-06T04:40:06;6.78;88.82
75387;DHT22;63966;47.914;22.266;2024-03-06T04:43:13;6.77;88.62
75387;DHT22;63966;47.914;22.266;2024-03-06T04:46:16;6.85;88.37
75387;DHT22;63966;47.914;22.266;2024-03-06T04:49:20;6.82;88.27
75387;DHT22;63966;47.914;22.266;2024-03-06T04:52:23;6.81;88.43
75387;DHT22;63966;47.914;22.266;2024-03-06T04:55:26;6.81;88.32
75387;DHT22;63966;47.914;22.266;2024-03-06T04:58:30;6.81;88.29
75387;DHT22;63966;47.914;22.266;2024-03-06T05:01:33;6.79;88.32
75387;DHT22;63966;47.914;22.266;2024-03-06T05:04:37;6.79;88.57
75387;DHT22;63966;47.914;22.266;2024-03-06T05:07:57;6.82;88.47
75387;DHT22;63966;47.914;22.266;2024-03-06T05:11:19;6.79;88.59
75387;DHT22;63966;47.914;22.266;2024-03-06T05:14:40;6.82;88.64
75387;DHT22;63966;47.914;22.266;2024-03-06T05:18:01;6.89;88.39
75387;DHT22;63966;47.914;22.266;2024-03-06T05:21:23;6.91;88.42
75387;DHT22;63966;47.914;22.266;2024-03-06T05:24:44;6.86;88.50
75387;DHT22;63966;47.914;22.266;2024-03-06T05:28:05;6.96;88.43
75387;DHT22;63966;47.914;22.266;2024-03-06T05:31:26;6.99;88.41
75387;DHT22;63966;47.914;22.266;2024-03-06T05:34:47;6.99;88.86
75387;DHT22;63966;47.914;22.266;2024-03-06T05:38:08;6.95;89.11
75387;DHT22;63966;47.914;22.266;2024-03-06T05:41:28;6.99;89.80
75387;DHT22;63966;47.914;22.266;2024-03-06T05:44:49;6.95;90.18
75387;DHT22;63966;47.914;22.266;2024-03-06T05:48:10;6.89;89.98
75387;DHT22;63966;47.914;22.266;2024-03-06T05:51:31;6.89;90.35
75387;DHT22;63966;47.914;22.266;2024-03-06T05:54:52;6.85;90.82
75387;DHT22;63966;47.914;22.266;2024-03-06T05:58:13;6.79;90.82
75387;DHT22;63966;47.914;22.266;2024-03-06T06:01:20;6.79;90.92
75387;DHT22;63966;47.914;22.266;2024-03-06T06:04:24;6.75;91.50
75387;DHT22;63966;47.914;22.266;2024-03-06T06:07:28;6.74;91.44
75387;DHT22;63966;47.914;22.266;2024-03-06T06:10:32;6.72;91.72
75387;DHT22;63966;47.914;22.266;2024-03-06T06:13:35;6.72;91.46
75387;DHT22;63966;47.914;22.266;2024-03-06T06:16:39;6.77;91.52
75387;DHT22;63966;47.914;22.266;2024-03-06T06:19:44;6.82;91.01
75387;DHT22;63966;47.914;22.266;2024-03-06T06:22:47;6.91;90.86
75387;DHT22;63966;47.914;22.266;2024-03-06T06:25:51;6.98;90.93
75387;DHT22;63966;47.914;22.266;2024-03-06T06:28:54;7.02;90.55
75387;DHT22;63966;47.914;22.266;2024-03-06T06:31:58;7.05;90.94
75387;DHT22;63966;47.914;22.266;2024-03-06T06:35:03;7.07;91.54
75387;DHT22;63966;47.914;22.266;2024-03-06T06:38:07;7.05;91.20
75387;DHT22;63966;47.914;22.266;2024-03-06T06:41:14;7.05;90.96
75387;DHT22;63966;47.914;22.266;2024-03-06T06:44:18;6.92;90.65
75387;DHT22;63966;47.914;22.266;2024-03-06T06:47:21;6.99;90.71
75387;DHT22;63966;47.914;22.266;2024-03-06T06:50:25;7.16;90.17
75387;DHT22;63966;47.914;22.266;2024-03-06T06:53:31;7.20;90.06
75387;DHT22;63966;47.914;22.266;2024-03-06T06:56:34;7.12;90.27
75387;DHT22;63966;47.914;22.266;2024-03-06T06:59:38;7.20;90.16
75387;DHT22;63966;47.914;22.266;2024-03-06T07:02:42;7.26;90.42
75387;DHT22;63966;47.914;22.266;2024-03-06T07:05:46;7.33;89.72
75387;DHT22;63966;47.914;22.266;2024-03-06T07:08:50;7.46;88.42
75387;DHT22;63966;47.914;22.266;2024-03-06T07:11:54;7.60;88.51
75387;DHT22;63966;47.914;22.266;2024-03-06T07:14:59;7.82;88.05
75387;DHT22;63966;47.914;22.266;2024-03-06T07:18:02;7.94;87.09
75387;DHT22;63966;47.914;22.266;2024-03-06T07:21:06;7.89;87.03
75387;DHT22;63966;47.914;22.266;2024-03-06T07:24:10;8.02;86.83
75387;DHT22;63966;47.914;22.266;2024-03-06T07:27:14;8.21;86.25
75387;DHT22;63966;47.914;22.266;2024-03-06T07:30:18;8.21;86.59
75387;DHT22;63966;47.914;22.266;2024-03-06T07:33:22;8.12;85.29
75387;DHT22;63966;47.914;22.266;2024-03-06T07:36:26;8.16;85.92
75387;DHT22;63966;47.914;22.266;2024-03-06T07:39:29;8.30;85.86
75387;DHT22;63966;47.914;22.266;2024-03-06T07:42:34;8.43;85.24
75387;DHT22;63966;47.914;22.266;2024-03-06T07:45:38;8.47;84.94
75387;DHT22;63966;47.914;22.266;2024-03-06T07:48:43;8.57;84.72
75387;DHT22;63966;47.914;22.266;2024-03-06T07:57:19;9.23;82.91
75387;DHT22;63966;47.914;22.266;2024-03-06T08:00:24;9.32;81.85
75387;DHT22;63966;47.914;22.266;2024-03-06T08:03:28;9.49;82.22
75387;DHT22;63966;47.914;22.266;2024-03-06T08:06:31;9.23;81.56
75387;DHT22;63966;47.914;22.266;2024-03-06T08:09:37;9.39;81.70
75387;DHT22;63966;47.914;22.266;2024-03-06T08:12:45;9.59;80.93
75387;DHT22;63966;47.914;22.266;2024-03-06T08:15:51;9.78;81.06
75387;DHT22;63966;47.914;22.266;2024-03-06T08:18:55;10.04;80.81
75387;DHT22;63966;47.914;22.266;2024-03-06T08:22:01;10.32;78.87
75387;DHT22;63966;47.914;22.266;2024-03-06T08:25:09;10.24;77.91
75387;DHT22;63966;47.914;22.266;2024-03-06T08:28:13;10.34;77.27
75387;DHT22;63966;47.914;22.266;2024-03-06T08:31:16;10.28;77.09
75387;DHT22;63966;47.914;22.266;2024-03-06T08:34:20;10.36;77.97
75387;DHT22;63966;47.914;22.266;2024-03-06T08:37:27;10.41;77.79
75387;DHT22;63966;47.914;22.266;2024-03-06T08:40:31;10.32;79.46
75387;DHT22;63966;47.914;22.266;2024-03-06T08:43:37;11.12;76.97
75387;DHT22;63966;47.914;22.266;2024-03-06T08:46:43;11.27;75.70
75387;DHT22;63966;47.914;22.266;2024-03-06T08:49:47;11.52;74.49
75387;DHT22;63966;47.914;22.266;2024-03-06T08:52:51;11.14;76.32
75387;DHT22;63966;47.914;22.266;2024-03-06T08:55:58;11.32;75.43
75387;DHT22;63966;47.914;22.266;2024-03-06T08:59:06;11.96;74.09
75387;DHT22;63966;47.914;22.266;2024-03-06T09:02:17;12.33;73.54
75387;DHT22;63966;47.914;22.266;2024-03-06T09:05:22;12.59;70.46
75387;DHT22;63966;47.914;22.266;2024-03-06T09:08:26;12.30;73.47
75387;DHT22;63966;47.914;22.266;2024-03-06T09:11:29;11.98;73.25
75387;DHT22;63966;47.914;22.266;2024-03-06T09:14:34;11.83;74.73
75387;DHT22;63966;47.914;22.266;2024-03-06T09:17:38;11.58;74.82
75387;DHT22;63966;47.914;22.266;2024-03-06T09:20:42;11.34;75.63
75387;DHT22;63966;47.914;22.266;2024-03-06T09:23:49;11.32;74.49
75387;DHT22;63966;47.914;22.266;2024-03-06T09:26:56;11.35;75.05
75387;DHT22;63966;47.914;22.266;2024-03-06T09:30:00;11.69;74.55
75387;DHT22;63966;47.914;22.266;2024-03-06T09:33:04;11.83;73.66
75387;DHT22;63966;47.914;22.266;2024-03-06T09:36:11;12.03;73.15
75387;DHT22;63966;47.914;22.266;2024-03-06T09:39:18;12.23;71.89
75387;DHT22;63966;47.914;22.266;2024-03-06T09:42:26;12.07;74.54
75387;DHT22;63966;47.914;22.266;2024-03-06T09:45:30;12.14;73.99
75387;DHT22;63966;47.914;22.266;2024-03-06T09:48:34;12.38;72.62
75387;DHT22;63966;47.914;22.266;2024-03-06T09:51:44;12.61;70.74
75387;DHT22;63966;47.914;22.266;2024-03-06T09:54:50;12.56;71.61
75387;DHT22;63966;47.914;22.266;2024-03-06T09:57:55;12.58;71.59
75387;DHT22;63966;47.914;22.266;2024-03-06T10:01:01;12.42;72.19
75387;DHT22;63966;47.914;22.266;2024-03-06T10:04:24;12.13;73.98
75387;DHT22;63966;47.914;22.266;2024-03-06T10:07:28;11.96;73.52
75387;DHT22;63966;47.914;22.266;2024-03-06T10:10:31;11.83;74.26
75387;DHT22;63966;47.914;22.266;2024-03-06T10:13:57;11.93;74.70
75387;DHT22;63966;47.914;22.266;2024-03-06T10:17:02;11.72;74.36
75387;DHT22;63966;47.914;22.266;2024-03-06T10:20:20;11.77;74.25
75387;DHT22;63966;47.914;22.266;2024-03-06T10:23:24;11.86;74.30
75387;DHT22;63966;47.914;22.266;2024-03-06T10:26:30;12.35;72.80
75387;DHT22;63966;47.914;22.266;2024-03-06T10:29:34;12.28;73.12
75387;DHT22;63966;47.914;22.266;2024-03-06T10:32:39;12.35;73.87
75387;DHT22;63966;47.914;22.266;2024-03-06T10:35:44;12.16;72.92
75387;DHT22;63966;47.914;22.266;2024-03-06T10:38:51;12.17;72.61
75387;DHT22;63966;47.914;22.266;2024-03-06T10:41:56;12.10;73.20
75387;DHT22;63966;47.914;22.266;2024-03-06T10:45:05;12.46;72.10
75387;DHT22;63966;47.914;22.266;2024-03-06T10:48:09;12.30;72.83
75387;DHT22;63966;47.914;22.266;2024-03-06T10:51:15;12.08;74.74
75387;DHT22;63966;47.914;22.266;2024-03-06T10:54:20;12.00;72.90
75387;DHT22;63966;47.914;22.266;2024-03-06T10:57:25;11.87;73.34
75387;DHT22;63966;47.914;22.266;2024-03-06T11:00:29;11.80;74.67
75387;DHT22;63966;47.914;22.266;2024-03-06T11:03:34;11.83;75.39
75387;DHT22;63966;47.914;22.266;2024-03-06T11:06:39;11.90;74.24
75387;DHT22;63966;47.914;22.266;2024-03-06T11:09:43;12.04;72.87
75387;DHT22;63966;47.914;22.266;2024-03-06T11:12:46;11.85;73.41
75387;DHT22;63966;47.914;22.266;2024-03-06T11:15:53;11.80;73.67
75387;DHT22;63966;47.914;22.266;2024-03-06T11:19:09;11.79;73.98
75387;DHT22;63966;47.914;22.266;2024-03-06T11:22:13;11.51;75.44
75387;DHT22;63966;47.914;22.266;2024-03-06T11:28:50;11.63;74.49
75387;DHT22;63966;47.914;22.266;2024-03-06T11:32:07;11.45;75.26
75387;DHT22;63966;47.914;22.266;2024-03-06T11:35:12;11.38;76.82
75387;DHT22;63966;47.914;22.266;2024-03-06T11:38:20;11.42;76.04
75387;DHT22;63966;47.914;22.266;2024-03-06T11:41:28;11.32;75.72
75387;DHT22;63966;47.914;22.266;2024-03-06T11:44:33;11.31;77.13
75387;DHT22;63966;47.914;22.266;2024-03-06T11:47:56;11.48;76.23
75387;DHT22;63966;47.914;22.266;2024-03-06T11:51:02;11.52;74.63
75387;DHT22;63966;47.914;22.266;2024-03-06T11:54:06;11.51;75.04
75387;DHT22;63966;47.914;22.266;2024-03-06T11:57:09;11.62;74.56
75387;DHT22;63966;47.914;22.266;2024-03-06T12:00:15;11.85;75.72
75387;DHT22;63966;47.914;22.266;2024-03-06T12:03:19;11.79;74.14
75387;DHT22;63966;47.914;22.266;2024-03-06T12:06:23;11.57;75.35
75387;DHT22;63966;47.914;22.266;2024-03-06T12:09:28;11.66;74.58
75387;DHT22;63966;47.914;22.266;2024-03-06T12:12:31;11.86;74.44
75387;DHT22;63966;47.914;22.266;2024-03-06T12:15:35;11.97;74.21
75387;DHT22;63966;47.914;22.266;2024-03-06T12:18:39;11.97;73.57
75387;DHT22;63966;47.914;22.266;2024-03-06T12:21:43;12.08;73.82
75387;DHT22;63966;47.914;22.266;2024-03-06T12:24:59;12.34;72.35
75387;DHT22;63966;47.914;22.266;2024-03-06T12:28:07;12.55;71.17
75387;DHT22;63966;47.914;22.266;2024-03-06T12:31:14;12.75;70.92
75387;DHT22;63966;47.914;22.266;2024-03-06T12:34:17;12.95;70.68
75387;DHT22;63966;47.914;22.266;2024-03-06T12:37:29;12.75;71.08
75387;DHT22;63966;47.914;22.266;2024-03-06T12:40:37;12.82;70.26
75387;DHT22;63966;47.914;22.266;2024-03-06T12:43:41;12.82;69.51
75387;DHT22;63966;47.914;22.266;2024-03-06T12:46:44;12.78;70.65
75387;DHT22;63966;47.914;22.266;2024-03-06T12:49:48;12.72;69.89
75387;DHT22;63966;47.914;22.266;2024-03-06T12:52:54;12.76;70.53
75387;DHT22;63966;47.914;22.266;2024-03-06T12:55:57;12.89;71.70
75387;DHT22;63966;47.914;22.266;2024-03-06T12:59:01;12.91;72.86
75387;DHT22;63966;47.914;22.266;2024-03-06T13:02:05;12.66;72.50
75387;DHT22;63966;47.914;22.266;2024-03-06T13:05:09;12.72;72.47
75387;DHT22;63966;47.914;22.266;2024-03-06T13:08:12;12.58;72.65
75387;DHT22;63966;47.914;22.266;2024-03-06T13:11:17;12.59;72.49
75387;DHT22;63966;47.914;22.266;2024-03-06T13:14:22;12.37;73.40
75387;DHT22;63966;47.914;22.266;2024-03-06T13:17:25;12.41;73.66
75387;DHT22;63966;47.914;22.266;2024-03-06T13:20:30;12.46;72.77
75387;DHT22;63966;47.914;22.266;2024-03-06T13:23:34;12.59;72.19
75387;DHT22;63966;47.914;22.266;2024-03-06T13:26:38;12.64;73.03
75387;DHT22;63966;47.914;22.266;2024-03-06T13:29:43;12.71;72.85
75387;DHT22;63966;47.914;22.266;2024-03-06T13:32:47;12.65;72.30
75387;DHT22;63966;47.914;22.266;2024-03-06T13:35:51;12.82;71.92
75387;DHT22;63966;47.914;22.266;2024-03-06T13:38:55;13.16;69.97
75387;DHT22;63966;47.914;22.266;2024-03-06T13:41:59;13.31;69.39
75387;DHT22;63966;47.914;22.266;2024-03-06T13:45:04;12.95;73.21
75387;DHT22;63966;47.914;22.266;2024-03-06T13:48:14;12.95;71.82
75387;DHT22;63966;47.914;22.266;2024-03-06T13:51:21;12.92;71.29
75387;DHT22;63966;47.914;22.266;2024-03-06T13:54:24;12.82;71.43
75387;DHT22;63966;47.914;22.266;2024-03-06T13:57:28;12.56;72.03
75387;DHT22;63966;47.914;22.266;2024-03-06T14:00:32;12.00;73.51
75387;DHT22;63966;47.914;22.266;2024-03-06T14:03:38;11.82;74.78
75387;DHT22;63966;47.914;22.266;2024-03-06T14:06:43;11.54;75.50
75387;DHT22;63966;47.914;22.266;2024-03-06T14:09:49;11.41;75.25
75387;DHT22;63966;47.914;22.266;2024-03-06T14:12:53;11.41;75.73
75387;DHT22;63966;47.914;22.266;2024-03-06T14:15:58;11.43;75.62
75387;DHT22;63966;47.914;22.266;2024-03-06T14:19:03;11.36;76.17
75387;DHT22;63966;47.914;22.266;2024-03-06T14:22:08;11.34;76.23
75387;DHT22;63966;47.914;22.266;2024-03-06T14:25:13;11.39;75.61
75387;DHT22;63966;47.914;22.266;2024-03-06T14:28:16;11.28;75.86
75387;DHT22;63966;47.914;22.266;2024-03-06T14:31:20;11.28;76.69
75387;DHT22;63966;47.914;22.266;2024-03-06T14:34:25;11.36;76.46
75387;DHT22;63966;47.914;22.266;2024-03-06T14:37:31;11.25;76.06
75387;DHT22;63966;47.914;22.266;2024-03-06T14:40:35;11.32;76.00
75387;DHT22;63966;47.914;22.266;2024-03-06T14:43:40;11.28;76.34
75387;DHT22;63966;47.914;22.266;2024-03-06T14:46:44;11.27;75.35
75387;DHT22;63966;47.914;22.266;2024-03-06T14:49:48;11.10;76.00
75387;DHT22;63966;47.914;22.266;2024-03-06T14:52:53;11.10;76.05
75387;DHT22;63966;47.914;22.266;2024-03-06T14:55:57;11.17;75.38
75387;DHT22;63966;47.914;22.266;2024-03-06T14:59:01;11.04;75.86
75387;DHT22;63966;47.914;22.266;2024-03-06T15:02:05;10.94;75.86
75387;DHT22;63966;47.914;22.266;2024-03-06T15:05:10;10.74;74.96
75387;DHT22;63966;47.914;22.266;2024-03-06T15:08:15;10.53;74.72
75387;DHT22;63966;47.914;22.266;2024-03-06T15:11:19;10.38;75.19
75387;DHT22;63966;47.914;22.266;2024-03-06T15:14:26;10.26;76.38
75387;DHT22;63966;47.914;22.266;2024-03-06T15:17:32;10.16;75.96
75387;DHT22;63966;47.914;22.266;2024-03-06T15:20:36;10.02;76.29
75387;DHT22;63966;47.914;22.266;2024-03-06T15:23:40;9.93;76.45
75387;DHT22;63966;47.914;22.266;2024-03-06T15:26:43;9.86;76.00
75387;DHT22;63966;47.914;22.266;2024-03-06T15:29:47;9.83;76.32
75387;DHT22;63966;47.914;22.266;2024-03-06T15:32:51;9.64;76.36
75387;DHT22;63966;47.914;22.266;2024-03-06T15:35:55;9.51;76.48
75387;DHT22;63966;47.914;22.266;2024-03-06T15:38:59;9.57;76.76
75387;DHT22;63966;47.914;22.266;2024-03-06T15:42:03;9.44;76.65
75387;DHT22;63966;47.914;22.266;2024-03-06T15:45:07;9.40;76.91
75387;DHT22;63966;47.914;22.266;2024-03-06T15:48:10;9.35;76.92
75387;DHT22;63966;47.914;22.266;2024-03-06T15:51:18;9.29;76.63
75387;DHT22;63966;47.914;22.266;2024-03-06T15:54:22;9.15;76.98
75387;DHT22;63966;47.914;22.266;2024-03-06T15:57:25;9.08;77.18
75387;DHT22;63966;47.914;22.266;2024-03-06T16:00:29;9.15;77.48
75387;DHT22;63966;47.914;22.266;2024-03-06T16:03:33;9.15;77.30
75387;DHT22;63966;47.914;22.266;2024-03-06T16:06:37;9.07;77.29
75387;DHT22;63966;47.914;22.266;2024-03-06T16:09:43;9.07;76.88
75387;DHT22;63966;47.914;22.266;2024-03-06T16:12:47;9.09;77.23
75387;DHT22;63966;47.914;22.266;2024-03-06T16:15:50;8.91;77.27
75387;DHT22;63966;47.914;22.266;2024-03-06T16:18:58;8.89;77.08
75387;DHT22;63966;47.914;22.266;2024-03-06T16:22:04;8.77;76.73
75387;DHT22;63966;47.914;22.266;2024-03-06T16:25:09;8.87;76.45
75387;DHT22;63966;47.914;22.266;2024-03-06T16:28:12;8.77;76.49
75387;DHT22;63966;47.914;22.266;2024-03-06T16:31:17;8.74;76.67
75387;DHT22;63966;47.914;22.266;2024-03-06T16:34:22;8.78;77.13
75387;DHT22;63966;47.914;22.266;2024-03-06T16:37:28;8.88;77.36
75387;DHT22;63966;47.914;22.266;2024-03-06T16:40:32;8.80;77.24
75387;DHT22;63966;47.914;22.266;2024-03-06T16:43:35;8.78;76.73
75387;DHT22;63966;47.914;22.266;2024-03-06T16:46:39;8.75;76.55
75387;DHT22;63966;47.914;22.266;2024-03-06T16:49:43;8.56;77.77
75387;DHT22;63966;47.914;22.266;2024-03-06T16:52:47;8.42;77.43
75387;DHT22;63966;47.914;22.266;2024-03-06T16:55:50;8.42;77.49
75387;DHT22;63966;47.914;22.266;2024-03-06T16:58:54;8.42;77.40
75387;DHT22;63966;47.914;22.266;2024-03-06T17:01:59;8.34;77.98
75387;DHT22;63966;47.914;22.266;2024-03-06T17:05:03;8.37;77.26
75387;DHT22;63966;47.914;22.266;2024-03-06T17:08:07;8.29;77.33
75387;DHT22;63966;47.914;22.266;2024-03-06T17:11:11;8.19;77.60
75387;DHT22;63966;47.914;22.266;2024-03-06T17:14:15;8.16;78.15
75387;DHT22;63966;47.914;22.266;2024-03-06T17:17:18;8.15;78.24
75387;DHT22;63966;47.914;22.266;2024-03-06T17:20:23;8.15;78.42
75387;DHT22;63966;47.914;22.266;2024-03-06T17:23:27;8.19;78.95
75387;DHT22;63966;47.914;22.266;2024-03-06T17:26:32;8.22;79.40
75387;DHT22;63966;47.914;22.266;2024-03-06T17:29:38;8.16;78.94
75387;DHT22;63966;47.914;22.266;2024-03-06T17:32:42;8.23;78.92
75387;DHT22;63966;47.914;22.266;2024-03-06T17:35:49;8.10;79.34
75387;DHT22;63966;47.914;22.266;2024-03-06T17:38:52;8.10;79.56
75387;DHT22;63966;47.914;22.266;2024-03-06T17:41:56;8.06;79.27
75387;DHT22;63966;47.914;22.266;2024-03-06T17:45:01;8.01;79.57
75387;DHT22;63966;47.914;22.266;2024-03-06T17:48:05;8.03;79.87
75387;DHT22;63966;47.914;22.266;2024-03-06T17:51:09;7.98;79.96
75387;DHT22;63966;47.914;22.266;2024-03-06T17:54:14;8.05;79.81
75387;DHT22;63966;47.914;22.266;2024-03-06T17:57:20;8.09;79.55
75387;DHT22;63966;47.914;22.266;2024-03-06T18:00:23;8.15;79.77
75387;DHT22;63966;47.914;22.266;2024-03-06T18:03:27;8.13;79.68
75387;DHT22;63966;47.914;22.266;2024-03-06T18:06:31;8.21;79.71
75387;DHT22;63966;47.914;22.266;2024-03-06T18:09:34;8.06;80.64
75387;DHT22;63966;47.914;22.266;2024-03-06T18:12:38;8.12;80.87
75387;DHT22;63966;47.914;22.266;2024-03-06T18:15:42;8.17;80.10
75387;DHT22;63966;47.914;22.266;2024-03-06T18:18:46;8.39;80.35
75387;DHT22;63966;47.914;22.266;2024-03-06T18:21:49;8.17;79.59
75387;DHT22;63966;47.914;22.266;2024-03-06T18:24:53;8.16;80.18
75387;DHT22;63966;47.914;22.266;2024-03-06T18:27:57;8.29;80.56
75387;DHT22;63966;47.914;22.266;2024-03-06T18:31:00;8.13;81.04
75387;DHT22;63966;47.914;22.266;2024-03-06T18:34:07;8.10;80.65
75387;DHT22;63966;47.914;22.266;2024-03-06T18:37:10;7.98;81.39
75387;DHT22;63966;47.914;22.266;2024-03-06T18:40:14;8.07;81.29
75387;DHT22;63966;47.914;22.266;2024-03-06T18:43:18;7.96;81.66
75387;DHT22;63966;47.914;22.266;2024-03-06T18:46:21;7.94;81.99
75387;DHT22;63966;47.914;22.266;2024-03-06T18:49:25;8.02;81.87
75387;DHT22;63966;47.914;22.266;2024-03-06T18:52:29;8.06;81.99
75387;DHT22;63966;47.914;22.266;2024-03-06T18:55:33;8.09;82.48
75387;DHT22;63966;47.914;22.266;2024-03-06T18:58:36;8.05;83.17
75387;DHT22;63966;47.914;22.266;2024-03-06T19:01:40;7.99;83.57
75387;DHT22;63966;47.914;22.266;2024-03-06T19:04:44;8.03;84.22
75387;DHT22;63966;47.914;22.266;2024-03-06T19:07:51;8.09;84.19
75387;DHT22;63966;47.914;22.266;2024-03-06T19:10:55;8.01;85.04
75387;DHT22;63966;47.914;22.266;2024-03-06T19:13:58;8.01;85.46
75387;DHT22;63966;47.914;22.266;2024-03-06T19:17:02;8.06;85.79
75387;DHT22;63966;47.914;22.266;2024-03-06T19:20:06;8.02;85.84
75387;DHT22;63966;47.914;22.266;2024-03-06T19:23:10;7.94;86.41
75387;DHT22;63966;47.914;22.266;2024-03-06T19:26:14;8.01;86.45
75387;DHT22;63966;47.914;22.266;2024-03-06T19:29:17;7.94;86.67
75387;DHT22;63966;47.914;22.266;2024-03-06T19:32:21;7.91;87.34